Time;durP1;ratioP1;P1;durP2;ratioP2;P2;SDS_P1;SDS_P2;PMS_P1;PMS_P2;Temp;Humidity;BMP_temperature;BMP_pressure;BME280_temperature;BME280_humidity;BME280_pressure;Samples;Min_cycle;Max_cycle;Signal;HPM_P1;HPM_P2
2022/04/24 00:00:06;;;;;;;17.13;6.83;;;;;;;12.61;82.74;98407.06;5050259;28;20215;-84
2022/04/24 00:02:32;;;;;;;15.73;7.27;;;;;;;13.06;84.52;98490.88;5052634;28;20726;-85
2022/04/24 00:04:57;;;;;;;12.07;6.43;;;;;;;14.19;82.44;98663.41;5088691;28;20174;-85
2022/04/24 00:07:23;;;;;;;11.23;4.50;;;;;;;13.13;76.37;98473.25;5057169;28;20165;-85
2022/04/24 00:09:48;;;;;;;10.90;4.70;;;;;;;13.78;75.59;98552.41;5051975;28;20539;-83
2022/04/24 00:12:16;;;;;;;7.20;4.37;;;;;;;14.11;74.82;98608.97;5051391;28;20166;-83
2022/04/24 00:14:46;;;;;;;8.97;4.30;;;;;;;15.20;74.45;98774.66;5067220;28;20231;-84
2022/04/24 00:17:12;;;;;;;7.57;3.57;;;;;;;15.21;73.39;98772.97;5052357;28;20244;-84
2022/04/24 00:19:38;;;;;;;7.70;3.50;;;;;;;15.18;72.52;98778.03;5084680;28;20205;-83
2022/04/24 00:22:04;;;;;;;8.27;3.50;;;;;;;14.88;71.61;98719.78;5052990;28;20181;-84
2022/04/24 00:24:29;;;;;;;7.77;3.50;;;;;;;15.24;70.99;98773.03;5051878;28;20264;-84
2022/04/24 00:26:54;;;;;;;6.40;3.53;;;;;;;13.16;70.14;98416.59;5042105;28;20192;-85
2022/04/24 00:29:21;;;;;;;6.23;3.33;;;;;;;12.23;69.86;98285.31;5032959;28;20231;-83
2022/04/24 00:31:47;;;;;;;7.50;3.97;;;;;;;13.22;69.98;98437.00;5032734;28;20522;-83
2022/04/24 00:34:12;;;;;;;7.93;3.80;;;;;;;12.60;71.01;98349.47;5032525;28;20163;-83
2022/04/24 00:36:38;;;;;;;6.77;3.60;;;;;;;13.13;71.79;98473.25;5032035;28;20190;-84
2022/04/24 00:39:03;;;;;;;8.90;3.87;;;;;;;11.32;72.76;98157.53;5032458;28;20162;-86
2022/04/24 00:41:29;;;;;;;7.73;3.90;;;;;;;12.34;72.51;98303.28;5032812;28;20189;-85
2022/04/24 00:43:55;;;;;;;10.37;4.97;;;;;;;12.98;73.31;98422.16;5035435;28;20259;-85
2022/04/24 00:46:43;;;;;;;6.57;4.10;;;;;;;14.77;74.02;98732.38;5051987;28;20591;-83
2022/04/24 00:49:10;;;;;;;8.87;4.70;;;;;;;14.35;74.01;98679.84;5051783;28;20530;-85
2022/04/24 00:51:37;;;;;;;7.40;4.10;;;;;;;13.88;74.47;98623.84;5052334;28;20233;-84
2022/04/24 00:54:06;;;;;;;7.40;4.17;;;;;;;13.46;75.23;98556.91;5051921;28;20218;-84
2022/04/24 00:56:32;;;;;;;9.37;4.00;;;;;;;14.27;74.98;98696.63;5052111;28;20212;-84
2022/04/24 00:58:59;;;;;;;9.30;4.30;;;;;;;14.70;75.80;98786.59;5051903;28;20161;-85
2022/04/24 01:01:25;;;;;;;7.97;4.30;;;;;;;12.75;76.94;98479.25;5051921;28;20169;-84
2022/04/24 01:03:52;;;;;;;8.53;4.43;;;;;;;14.48;78.04;98787.03;5050728;28;20556;-84
2022/04/24 01:06:18;;;;;;;11.23;4.43;;;;;;;13.68;78.65;98657.38;5050937;28;20637;-85
2022/04/24 01:08:43;;;;;;;9.00;4.53;;;;;;;14.13;79.09;98735.44;5051318;28;20177;-84
2022/04/24 01:11:08;;;;;;;8.87;4.47;;;;;;;14.11;79.89;98742.19;5051424;28;20664;-84
2022/04/24 01:13:34;;;;;;;6.80;4.40;;;;;;;14.38;80.37;98772.44;5051634;28;20165;-83
2022/04/24 01:15:59;;;;;;;7.97;4.40;;;;;;;12.79;80.72;98508.97;5083443;28;20323;-84
2022/04/24 01:18:29;;;;;;;7.80;4.47;;;;;;;14.45;80.92;98802.25;5051147;28;20252;-85
2022/04/24 01:20:54;;;;;;;10.33;4.90;;;;;;;14.25;81.30;98778.09;5051354;28;20593;-83
2022/04/24 01:23:20;;;;;;;11.40;4.47;;;;;;;13.40;82.33;98656.84;5051094;28;20178;-84
2022/04/24 01:25:45;;;;;;;12.30;5.00;;;;;;;14.05;84.56;98804.84;5051166;28;20170;-83
2022/04/24 01:28:11;;;;;;;8.53;5.10;;;;;;;13.95;87.22;98806.31;5051050;28;20174;-84
2022/04/24 01:30:36;;;;;;;15.73;5.70;;;;;;;12.94;88.39;98654.06;5050059;28;20621;-84
2022/04/24 01:33:03;;;;;;;8.63;5.20;;;;;;;13.60;90.78;98792.84;5051386;28;20188;-83
2022/04/24 01:35:30;;;;;;;11.77;5.50;;;;;;;12.84;91.67;98683.50;5050989;28;20203;-86
2022/04/24 01:37:58;;;;;;;11.13;5.70;;;;;;;10.98;91.06;98372.06;5050929;28;20174;-83
2022/04/24 01:40:24;;;;;;;10.50;6.03;;;;;;;13.54;91.91;98807.97;5051117;28;20166;-83
2022/04/24 01:42:49;;;;;;;18.00;8.57;;;;;;;13.52;91.60;98778.25;5050413;28;20659;-83
2022/04/24 01:45:14;;;;;;;25.73;14.13;;;;;;;13.61;91.64;98811.53;5051225;28;20231;-84
2022/04/24 01:47:40;;;;;;;34.03;19.10;;;;;;;12.95;91.99;98712.56;5050994;28;20170;-83
2022/04/24 01:50:05;;;;;;;20.83;11.67;;;;;;;11.85;92.18;98539.81;5049937;28;20268;-83
2022/04/24 01:52:31;;;;;;;20.17;9.50;;;;;;;13.33;92.19;98799.88;5051853;28;20181;-83
2022/04/24 01:54:56;;;;;;;10.60;6.40;;;;;;;12.54;91.22;98665.00;5083779;28;20286;-84
2022/04/24 01:57:21;;;;;;;11.30;6.47;;;;;;;12.87;91.21;98725.91;5051098;28;20184;-84
2022/04/24 01:59:47;;;;;;;14.13;6.20;;;;;;;13.03;92.18;98778.78;5051923;28;20161;-85
2022/04/24 02:02:12;;;;;;;12.40;7.07;;;;;;;12.13;93.14;98625.94;5052210;28;20253;-83
2022/04/24 02:04:38;;;;;;;11.50;6.37;;;;;;;10.17;94.05;98314.16;5051773;28;20154;-84
2022/04/24 02:07:04;;;;;;;12.83;7.23;;;;;;;10.95;95.87;98442.88;5066344;28;20161;-83
2022/04/24 02:09:29;;;;;;;18.70;9.43;;;;;;;11.86;97.24;98622.69;5049131;28;20252;-84
2022/04/24 02:11:55;;;;;;;12.70;7.20;;;;;;;12.50;98.13;98772.38;5051531;28;20188;-84
2022/04/24 02:14:20;;;;;;;13.57;7.17;;;;;;;11.75;99.83;98667.19;5051086;28;20217;-84
2022/04/24 02:16:46;;;;;;;14.10;8.33;;;;;;;12.01;100.00;98705.91;5050774;28;20288;-86
2022/04/24 02:19:11;;;;;;;14.67;8.17;;;;;;;10.98;100.00;98543.38;5050700;28;20174;-84
2022/04/24 02:21:36;;;;;;;17.77;8.60;;;;;;;10.51;100.00;98440.78;5050899;28;20200;-83
2022/04/24 02:24:02;;;;;;;13.10;7.93;;;;;;;10.22;100.00;98403.69;5052492;28;20630;-84
2022/04/24 02:26:27;;;;;;;14.40;8.33;;;;;;;12.72;100.00;98838.13;5069538;28;20213;-85
2022/04/24 02:28:54;;;;;;;14.20;8.07;;;;;;;11.39;100.00;98616.31;5054178;28;20195;-84
2022/04/24 02:31:19;;;;;;;12.60;8.33;;;;;;;9.94;100.00;98389.34;5054471;28;20169;-84
2022/04/24 02:33:45;;;;;;;10.70;7.53;;;;;;;11.64;100.00;98683.75;5053972;28;20174;-85
2022/04/24 02:36:10;;;;;;;14.37;8.27;;;;;;;11.37;100.00;98661.00;5054139;28;20311;-86
2022/04/24 02:38:35;;;;;;;16.33;8.43;;;;;;;10.06;100.00;98471.47;5052723;28;20225;-84
2022/04/24 02:41:01;;;;;;;17.37;8.80;;;;;;;10.40;100.00;98540.81;5053862;28;20252;-84
2022/04/24 02:43:26;;;;;;;15.93;8.53;;;;;;;9.11;100.00;98354.75;5053691;28;20161;-84
2022/04/24 02:45:52;;;;;;;15.43;8.60;;;;;;;11.55;100.00;98752.81;5054066;28;20188;-83
2022/04/24 02:48:17;;;;;;;13.33;8.40;;;;;;;11.01;100.00;98665.03;5054060;28;20193;-85
2022/04/24 02:50:42;;;;;;;13.83;7.40;;;;;;;10.06;100.00;98508.53;5054186;28;20211;-83
2022/04/24 02:53:08;;;;;;;13.03;7.57;;;;;;;10.35;100.00;98539.81;5053952;28;20169;-84
2022/04/24 02:55:33;;;;;;;13.93;8.40;;;;;;;10.56;100.00;98553.13;5053765;28;20201;-83
2022/04/24 02:57:59;;;;;;;15.63;8.50;;;;;;;12.46;100.00;98853.50;5053738;28;20169;-83
2022/04/24 03:00:27;;;;;;;12.43;7.80;;;;;;;12.47;100.00;98862.84;5054109;28;20176;-83
2022/04/24 03:02:53;;;;;;;13.07;8.13;;;;;;;12.51;100.00;98857.00;5053326;28;20174;-83
2022/04/24 03:05:22;;;;;;;13.63;8.20;;;;;;;9.40;100.00;98360.72;5053732;28;20220;-84
2022/04/24 03:07:48;;;;;;;14.30;7.93;;;;;;;9.56;100.00;98403.31;5054093;28;20244;-83
2022/04/24 03:10:14;;;;;;;15.47;7.30;;;;;;;9.49;100.00;98368.59;5054114;28;20169;-82
2022/04/24 03:12:41;;;;;;;13.20;7.80;;;;;;;10.94;100.00;98618.41;5053368;28;20208;-83
2022/04/24 03:15:10;;;;;;;14.03;8.53;;;;;;;11.15;100.00;98659.53;5053006;28;20220;-83
2022/04/24 03:17:36;;;;;;;24.40;13.23;;;;;;;12.03;100.00;98819.31;5053778;28;20189;-83
2022/04/24 03:20:04;;;;;;;29.17;15.93;;;;;;;8.98;100.00;98304.69;5053265;28;20205;-83
2022/04/24 03:22:30;;;;;;;26.93;14.97;;;;;;;12.38;100.00;98879.53;5052902;28;20185;-83
2022/04/24 03:24:57;;;;;;;16.80;9.50;;;;;;;11.11;100.00;98672.94;5053419;28;20174;-84
2022/04/24 03:27:23;;;;;;;18.03;8.93;;;;;;;10.63;100.00;98605.63;5052828;28;20177;-83
2022/04/24 03:29:48;;;;;;;18.47;11.13;;;;;;;10.52;100.00;98620.47;5054087;28;20224;-84
2022/04/24 03:32:14;;;;;;;20.50;12.60;;;;;;;9.80;100.00;98459.72;5053046;28;20190;-83
2022/04/24 03:34:39;;;;;;;19.87;12.13;;;;;;;9.91;100.00;98549.38;5051544;28;20352;-84
2022/04/24 03:37:05;;;;;;;17.63;10.43;;;;;;;9.65;100.00;98466.78;5052969;28;20173;-84
2022/04/24 03:39:30;;;;;;;18.23;11.03;;;;;;;9.45;100.00;98440.88;5051481;28;20188;-83
2022/04/24 03:41:56;;;;;;;16.43;9.20;;;;;;;9.50;100.00;98425.88;5052754;28;20626;-83
2022/04/24 03:44:22;;;;;;;17.27;10.43;;;;;;;10.88;100.00;98653.66;5053205;28;20197;-83
2022/04/24 03:46:47;;;;;;;18.23;9.23;;;;;;;9.71;100.00;98449.31;5052718;28;20205;-83
2022/04/24 03:49:13;;;;;;;22.30;10.10;;;;;;;11.56;100.00;98787.50;5052778;28;20201;-83
2022/04/24 03:51:38;;;;;;;19.73;9.97;;;;;;;9.41;100.00;98423.06;5053003;28;20158;-84
2022/04/24 03:54:04;;;;;;;20.67;11.27;;;;;;;10.44;100.00;98583.09;5052721;28;20647;-84
2022/04/24 03:56:31;;;;;;;22.67;11.50;;;;;;;11.73;100.00;98795.59;5052835;28;20201;-84
2022/04/24 03:58:58;;;;;;;21.83;11.57;;;;;;;11.19;100.00;98691.75;5052924;28;20244;-84
2022/04/24 04:01:23;;;;;;;22.87;12.10;;;;;;;10.44;100.00;98583.09;5053214;28;20170;-84
2022/04/24 04:03:50;;;;;;;20.20;11.33;;;;;;;9.71;100.00;98491.41;5052678;28;20169;-84
2022/04/24 04:06:15;;;;;;;23.10;11.40;;;;;;;9.54;100.00;98463.06;5051908;28;20177;-83
2022/04/24 04:08:41;;;;;;;24.53;11.17;;;;;;;9.98;100.00;98515.88;5052382;28;20261;-83
2022/04/24 04:11:07;;;;;;;19.43;10.93;;;;;;;10.83;100.00;98645.06;5052629;28;20197;-83
2022/04/24 04:13:33;;;;;;;18.67;10.40;;;;;;;11.55;100.00;98782.34;5052062;28;20161;-82
2022/04/24 04:15:59;;;;;;;24.40;14.93;;;;;;;11.11;100.00;98690.69;5050472;28;20262;-83
2022/04/24 04:18:24;;;;;;;19.53;12.63;;;;;;;12.31;100.00;98875.09;5051966;28;20248;-84
2022/04/24 04:20:49;;;;;;;31.53;14.93;;;;;;;11.39;100.00;98762.44;5051931;28;20561;-83
2022/04/24 04:23:15;;;;;;;24.13;13.43;;;;;;;11.02;100.00;98665.06;5052014;28;20166;-83
2022/04/24 04:25:40;;;;;;;22.20;12.57;;;;;;;10.71;100.00;98616.88;5051849;28;20701;-83
2022/04/24 04:28:05;;;;;;;24.07;12.37;;;;;;;10.14;100.00;98496.16;5052300;28;20181;-83
2022/04/24 04:30:31;;;;;;;20.43;11.20;;;;;;;12.09;100.00;98827.09;5050700;28;20619;-84
2022/04/24 04:32:56;;;;;;;17.73;10.77;;;;;;;12.55;100.00;98897.78;5052917;28;20169;-83
2022/04/24 04:35:25;;;;;;;19.47;9.70;;;;;;;10.30;100.00;98509.31;5053344;28;20668;-83
2022/04/24 04:37:50;;;;;;;16.23;8.97;;;;;;;10.67;100.00;98539.09;5052009;28;20244;-84
2022/04/24 04:40:18;;;;;;;13.67;8.60;;;;;;;13.05;100.00;98956.72;5053009;28;20717;-84
2022/04/24 04:42:44;;;;;;;13.00;7.77;;;;;;;10.77;99.60;98546.16;5051535;28;20227;-84
2022/04/24 04:45:10;;;;;;;13.13;7.90;;;;;;;12.73;99.22;98883.03;5051274;28;20176;-83
2022/04/24 04:47:36;;;;;;;10.47;6.80;;;;;;;11.99;97.88;98708.44;5051844;28;20165;-84
2022/04/24 04:50:02;;;;;;;13.87;6.80;;;;;;;12.13;97.10;98729.97;5052300;28;20173;-84
2022/04/24 04:52:28;;;;;;;12.23;7.30;;;;;;;13.17;97.69;98898.59;5049668;28;20548;-85
2022/04/24 04:54:53;;;;;;;11.30;5.97;;;;;;;13.68;96.39;98967.69;5051288;28;20197;-83
2022/04/24 04:57:25;;;;;;;9.50;5.60;;;;;;;11.88;95.77;98661.63;5051065;28;20180;-85
2022/04/24 04:59:51;;;;;;;12.63;5.97;;;;;;;11.76;95.17;98643.53;5064578;28;20250;-85
2022/04/24 05:02:16;;;;;;;10.97;5.87;;;;;;;11.73;93.59;98611.38;5049889;28;20177;-84
2022/04/24 05:04:45;;;;;;;10.10;5.83;;;;;;;12.12;91.40;98620.81;5053661;28;20272;-85
2022/04/24 05:07:11;;;;;;;9.00;5.50;;;;;;;14.32;90.21;98960.72;5052170;28;20632;-84
2022/04/24 05:09:38;;;;;;;10.83;5.93;;;;;;;12.35;88.67;98625.66;5051392;28;20200;-83
2022/04/24 05:12:04;;;;;;;12.17;6.07;;;;;;;12.02;88.11;98550.38;5051952;28;20178;-84
2022/04/24 05:14:30;;;;;;;11.77;7.00;;;;;;;14.61;86.03;98944.34;5055013;28;20236;-84
2022/04/24 05:16:56;;;;;;;13.40;7.07;;;;;;;13.05;84.79;98662.78;5053670;28;20241;-85
2022/04/24 05:19:22;;;;;;;15.17;6.70;;;;;;;13.95;84.58;98806.31;5050910;28;20253;-85
2022/04/24 05:21:48;;;;;;;12.40;7.20;;;;;;;14.51;84.72;98906.81;5051576;28;20229;-84
2022/04/24 05:24:13;;;;;;;12.53;7.70;;;;;;;14.15;83.96;98848.31;5052063;28;20630;-83
2022/04/24 05:26:40;;;;;;;14.83;8.87;;;;;;;12.28;86.09;98608.53;5053016;28;20166;-84
2022/04/24 05:29:06;;;;;;;16.57;9.30;;;;;;;14.42;87.94;98967.72;5083688;28;20170;-83
2022/04/24 05:31:31;;;;;;;12.43;6.57;;;;;;;13.87;86.89;98860.44;5051455;28;20170;-84
2022/04/24 05:33:57;;;;;;;15.33;7.77;;;;;;;13.21;87.32;98699.63;5051248;28;20169;-83
2022/04/24 05:36:22;;;;;;;13.60;6.20;;;;;;;12.84;85.91;98665.72;5050989;28;20204;-83
2022/04/24 05:38:48;;;;;;;15.20;8.10;;;;;;;12.24;86.88;98540.78;5051652;28;20249;-84
2022/04/24 05:41:13;;;;;;;13.40;7.60;;;;;;;13.53;85.69;98734.22;5051381;28;20161;-83
2022/04/24 05:43:39;;;;;;;14.13;7.20;;;;;;;12.80;86.38;98630.06;5050604;28;20554;-85
2022/04/24 05:46:04;;;;;;;14.70;7.90;;;;;;;12.89;86.66;98620.97;5050737;28;20162;-84
2022/04/24 05:48:29;;;;;;;12.27;7.73;;;;;;;14.83;84.78;98919.31;5050456;28;20173;-83
2022/04/24 05:50:55;;;;;;;10.77;6.97;;;;;;;14.57;84.84;98848.34;5066055;28;20181;-83
2022/04/24 05:53:21;;;;;;;13.97;7.30;;;;;;;13.79;85.96;98755.09;5051725;28;20626;-83
2022/04/24 05:55:46;;;;;;;13.50;7.40;;;;;;;13.90;84.87;98731.56;5052745;28;20246;-84
2022/04/24 05:58:12;;;;;;;16.60;9.60;;;;;;;14.83;83.51;98825.91;5052709;28;20165;-84
2022/04/24 06:00:38;;;;;;;13.83;7.53;;;;;;;14.42;82.85;98764.00;5052058;28;20186;-84
2022/04/24 06:03:04;;;;;;;13.50;9.03;;;;;;;15.75;81.98;98942.22;5046826;28;20695;-85
2022/04/24 06:05:30;;;;;;;13.27;7.50;;;;;;;13.68;80.05;98566.63;5054988;28;20340;-85
2022/04/24 06:07:55;;;;;;;10.60;6.30;;;;;;;15.90;82.32;98973.09;5054562;28;20664;-85
2022/04/24 06:10:21;;;;;;;16.80;9.23;;;;;;;15.17;83.88;98866.41;5054729;28;20677;-85
2022/04/24 06:12:50;;;;;;;11.80;7.07;;;;;;;16.15;82.02;98965.81;5054877;28;20169;-85
2022/04/24 06:15:20;;;;;;;16.60;9.50;;;;;;;16.11;83.10;98961.47;5054601;28;20682;-84
2022/04/24 06:17:47;;;;;;;17.07;8.47;;;;;;;16.68;79.21;98961.44;5087398;28;20179;-84
2022/04/24 06:20:13;;;;;;;13.30;8.93;;;;;;;15.33;78.06;98709.38;5054602;28;20617;-84
2022/04/24 06:22:50;;;;;;;13.17;7.57;;;;;;;16.47;79.19;98962.88;5059193;28;20173;-84
2022/04/24 06:25:23;;;;;;;11.50;8.30;;;;;;;15.08;79.71;98684.41;5056399;28;20617;-85
2022/04/24 06:27:49;;;;;;;10.53;7.80;;;;;;;16.70;80.55;98970.00;5054204;28;20188;-84
2022/04/24 06:30:17;;;;;;;13.30;7.80;;;;;;;16.56;80.72;98958.75;5055283;28;20173;-84
2022/04/24 06:32:43;;;;;;;11.53;7.10;;;;;;;16.41;81.62;98969.56;5054886;28;20165;-84
2022/04/24 06:35:10;;;;;;;13.40;9.20;;;;;;;16.03;78.89;98837.97;5055098;28;20254;-85
2022/04/24 06:37:37;;;;;;;13.50;8.23;;;;;;;16.32;80.30;98903.03;5056426;28;20169;-85
2022/04/24 06:40:05;;;;;;;16.33;8.10;;;;;;;16.46;77.47;98850.41;5054178;28;20697;-85
2022/04/24 06:42:30;;;;;;;14.33;7.70;;;;;;;15.58;76.31;98627.25;5054444;28;20711;-85
2022/04/24 06:44:57;;;;;;;14.57;7.90;;;;;;;15.13;76.41;98573.16;5053884;28;20174;-85
2022/04/24 06:47:22;;;;;;;11.03;6.77;;;;;;;15.87;78.20;98745.88;5054845;28;20158;-86
2022/04/24 06:49:48;;;;;;;12.37;6.77;;;;;;;14.91;78.03;98556.72;5055975;28;20195;-85
2022/04/24 06:52:13;;;;;;;13.97;8.23;;;;;;;16.42;74.73;98706.47;5054877;28;20160;-84
2022/04/24 06:54:38;;;;;;;11.17;6.20;;;;;;;16.93;70.99;98690.72;5055495;28;20533;-87
2022/04/24 06:57:04;;;;;;;12.33;7.27;;;;;;;16.63;69.76;98570.38;5053918;28;20189;-86
2022/04/24 06:59:30;;;;;;;11.67;6.63;;;;;;;16.82;69.22;98605.41;5054231;28;20197;-84
2022/04/24 07:01:55;;;;;;;13.80;7.20;;;;;;;16.90;66.58;98583.31;5053827;28;20166;-85
2022/04/24 07:04:21;;;;;;;13.30;7.23;;;;;;;18.02;66.38;98727.13;5054164;28;20165;-85
2022/04/24 07:06:46;;;;;;;14.83;6.83;;;;;;;17.38;64.99;98592.06;5054403;28;20548;-86
2022/04/24 07:09:12;;;;;;;15.37;8.17;;;;;;;16.31;64.96;98390.47;5053675;28;20598;-85
2022/04/24 07:11:37;;;;;;;10.53;6.47;;;;;;;16.82;62.72;98505.72;5040720;28;20647;-86
2022/04/24 07:14:02;;;;;;;10.50;6.43;;;;;;;18.16;59.71;98666.53;5040710;28;20174;-85
2022/04/24 07:16:28;;;;;;;10.47;6.23;;;;;;;18.70;57.54;98701.66;5049710;28;20232;-85
2022/04/24 07:18:54;;;;;;;14.03;7.50;;;;;;;19.88;59.28;98903.53;5044690;28;20185;-87
2022/04/24 07:21:19;;;;;;;10.33;6.73;;;;;;;19.81;60.02;98907.81;5054258;28;20173;-86
2022/04/24 07:23:44;;;;;;;11.50;5.50;;;;;;;19.95;56.55;98900.06;5054455;28;20192;-85
2022/04/24 07:26:10;;;;;;;11.20;6.00;;;;;;;18.63;57.66;98674.31;5054380;28;20170;-85
2022/04/24 07:28:36;;;;;;;10.40;5.83;;;;;;;19.46;56.97;98775.16;5052496;28;20251;-85
2022/04/24 07:31:01;;;;;;;9.23;6.80;;;;;;;18.76;56.74;98605.94;5053670;28;20161;-86
2022/04/24 07:33:27;;;;;;;9.83;5.80;;;;;;;20.20;56.43;98834.91;5053102;28;20173;-85
2022/04/24 07:35:52;;;;;;;11.83;5.60;;;;;;;19.10;54.24;98612.66;5068895;28;20208;-86
2022/04/24 07:38:18;;;;;;;9.17;5.80;;;;;;;21.21;55.67;98948.50;5086158;28;20173;-85
2022/04/24 07:40:43;;;;;;;10.90;5.80;;;;;;;19.98;55.22;98715.06;5053685;28;20169;-86
2022/04/24 07:43:10;;;;;;;14.03;6.77;;;;;;;21.53;55.81;98964.63;5053343;28;20692;-85
2022/04/24 07:45:46;;;;;;;10.50;5.10;;;;;;;20.51;54.54;98779.09;5085836;28;20165;-85
2022/04/24 07:48:13;;;;;;;10.23;5.10;;;;;;;21.01;53.31;98859.34;5053481;28;20165;-85
2022/04/24 07:50:48;;;;;;;10.33;5.47;;;;;;;20.53;55.32;98761.91;5054038;28;20193;-84
2022/04/24 07:53:14;;;;;;;9.90;5.53;;;;;;;20.19;54.33;98683.28;5053882;28;20172;-85
2022/04/24 07:55:41;;;;;;;9.33;5.30;;;;;;;19.83;51.85;98654.31;5053244;28;20204;-85
2022/04/24 07:58:07;;;;;;;9.43;5.50;;;;;;;19.66;52.61;98624.47;5054341;28;20630;-87
2022/04/24 08:00:33;;;;;;;9.23;5.70;;;;;;;22.07;51.51;98947.88;5053656;28;20177;-88
2022/04/24 08:03:01;;;;;;;10.77;5.30;;;;;;;21.23;51.06;98775.16;5053729;28;20181;-89
2022/04/24 08:05:36;;;;;;;9.10;5.83;;;;;;;22.61;50.58;98946.41;5054092;28;20264;-88
2022/04/24 08:08:08;;;;;;;12.10;5.80;;;;;;;21.01;49.08;98650.88;5053662;28;20161;-90
2022/04/24 08:10:36;;;;;;;10.50;5.80;;;;;;;22.36;49.66;98870.19;5053502;28;20168;-88
2022/04/24 08:13:04;;;;;;;11.43;5.37;;;;;;;19.93;49.67;98524.97;5053095;28;20173;-87
2022/04/24 08:15:32;;;;;;;12.37;5.80;;;;;;;22.15;49.48;98824.88;5061044;28;20240;-87
2022/04/24 08:17:58;;;;;;;9.40;5.00;;;;;;;22.42;48.35;98824.53;5057570;28;20546;-87
2022/04/24 08:20:23;;;;;;;12.17;5.30;;;;;;;21.18;46.94;98592.38;5050952;28;20212;-86
2022/04/24 08:22:51;;;;;;;12.17;5.10;;;;;;;22.54;46.17;98735.81;5052594;28;20193;-88
2022/04/24 08:25:21;;;;;;;12.47;5.67;;;;;;;22.17;45.71;98598.78;5039360;28;20272;-88
2022/04/24 08:27:47;;;;;;;8.23;4.83;;;;;;;22.31;44.39;98620.91;5035811;28;20189;-87
2022/04/24 08:30:14;;;;;;;8.57;4.50;;;;;;;24.11;43.68;98923.59;5053514;28;20173;-86
2022/04/24 08:32:41;;;;;;;10.83;5.00;;;;;;;22.65;44.19;98665.13;5052693;28;20195;-88
2022/04/24 08:35:09;;;;;;;15.77;5.10;;;;;;;21.41;44.92;98520.00;5034291;28;20205;-87
2022/04/24 08:37:34;;;;;;;10.67;5.33;;;;;;;22.20;45.50;98621.97;5035332;28;20244;-88
2022/04/24 08:40:00;;;;;;;11.33;5.20;;;;;;;22.53;44.63;98642.06;5034779;28;20199;-88
2022/04/24 08:42:26;;;;;;;14.87;5.70;;;;;;;23.89;43.46;98809.31;5051287;28;20641;-89
2022/04/24 08:44:56;;;;;;;14.00;5.17;;;;;;;22.95;44.02;98678.38;5049988;28;20173;-88
2022/04/24 08:47:23;;;;;;;9.50;5.40;;;;;;;24.05;44.04;98872.78;5051782;28;20185;-88
2022/04/24 08:49:54;;;;;;;10.03;5.13;;;;;;;22.70;43.33;98603.09;5055389;28;20185;-88
2022/04/24 08:52:20;;;;;;;11.63;5.77;;;;;;;23.19;44.44;98748.53;5061731;28;20162;-89
2022/04/24 08:54:46;;;;;;;12.67;5.70;;;;;;;23.58;44.47;98796.09;5056857;28;20174;-89
2022/04/24 08:57:12;;;;;;;11.77;5.40;;;;;;;23.34;43.67;98704.38;5053106;28;20165;-88
2022/04/24 08:59:38;;;;;;;9.77;5.37;;;;;;;23.45;44.71;98817.88;5054369;28;20660;-87
2022/04/24 09:02:06;;;;;;;10.90;5.70;;;;;;;22.14;44.26;98495.75;5053063;28;20180;-88
2022/04/24 09:04:36;;;;;;;11.80;5.37;;;;;;;22.43;43.53;98515.84;5053592;28;20268;-88
2022/04/24 09:07:04;;;;;;;14.07;5.57;;;;;;;24.97;42.55;98875.25;5053931;28;20169;-88
2022/04/24 09:09:37;;;;;;;11.63;5.87;;;;;;;24.95;42.01;98840.75;5069366;28;20181;-88
2022/04/24 09:12:10;;;;;;;14.23;5.90;;;;;;;23.95;42.31;98680.72;5052261;28;20173;-88
2022/04/24 09:14:37;;;;;;;12.13;5.93;;;;;;;24.51;43.43;98821.00;5054482;28;20252;-87
2022/04/24 09:17:08;;;;;;;12.63;6.13;;;;;;;25.06;43.12;98883.66;5058173;28;20231;-89
2022/04/24 09:19:36;;;;;;;14.30;6.17;;;;;;;25.15;43.43;98887.78;5085612;28;20535;-87
2022/04/24 09:22:04;;;;;;;10.30;5.47;;;;;;;23.07;44.54;98660.97;5056268;28;20193;-88
2022/04/24 09:24:59;;;;;;;11.53;5.77;;;;;;;25.00;44.05;98869.97;5055041;28;20176;-87
2022/04/24 09:27:37;;;;;;;11.13;5.77;;;;;;;22.56;44.83;98525.91;5090862;28;20208;-87
2022/04/24 09:30:11;;;;;;;11.47;5.90;;;;;;;22.79;44.32;98505.75;5089570;28;20208;-89
2022/04/24 09:32:46;;;;;;;13.67;5.90;;;;;;;25.48;43.56;98855.06;5070901;28;20625;-89
2022/04/24 09:35:30;;;;;;;10.03;5.90;;;;;;;22.97;44.63;98565.59;5056734;28;20696;-87
2022/04/24 09:38:17;;;;;;;11.97;6.17;;;;;;;24.51;45.36;98852.03;5039330;28;20170;-87
2022/04/24 09:40:45;;;;;;;8.77;5.83;;;;;;;24.79;45.56;98842.84;5069505;28;20196;-88
2022/04/24 09:43:13;;;;;;;11.17;5.80;;;;;;;21.84;45.62;98368.19;5089377;28;20173;-88
2022/04/24 09:45:45;;;;;;;11.20;6.07;;;;;;;23.21;45.60;98622.78;5063445;28;20654;-88
2022/04/24 09:48:18;;;;;;;10.83;5.57;;;;;;;24.77;45.99;98834.22;5057355;28;20181;-87
2022/04/24 09:50:44;;;;;;;10.60;5.67;;;;;;;23.01;45.70;98484.66;5058684;28;20169;-87
2022/04/24 09:53:14;;;;;;;10.50;6.00;;;;;;;25.20;45.10;98819.41;5090609;28;20235;-86
2022/04/24 09:55:43;;;;;;;15.17;5.77;;;;;;;24.87;45.20;98822.81;5055553;28;20266;-87
2022/04/24 09:58:10;;;;;;;10.57;6.03;;;;;;;23.81;44.99;98563.88;5056393;28;20166;-86
2022/04/24 10:00:36;;;;;;;9.13;6.03;;;;;;;23.41;45.22;98537.19;5055625;28;20188;-87
2022/04/24 10:03:04;;;;;;;13.00;7.03;;;;;;;24.28;44.94;98605.91;5055173;28;20249;-87
2022/04/24 10:05:31;;;;;;;13.40;6.37;;;;;;;23.78;45.00;98600.13;5056525;28;20256;-87
2022/04/24 10:07:57;;;;;;;12.53;6.40;;;;;;;24.25;46.65;98810.34;5061248;28;20195;-86
2022/04/24 10:10:23;;;;;;;12.43;6.20;;;;;;;22.89;46.78;98552.84;5067381;28;20185;-88
2022/04/24 10:12:50;;;;;;;16.40;6.67;;;;;;;22.67;46.95;98500.81;5054916;28;20183;-88
2022/04/24 10:15:18;;;;;;;9.30;5.90;;;;;;;24.73;46.58;98804.09;5056703;28;20286;-85
2022/04/24 10:18:01;;;;;;;15.63;6.37;;;;;;;24.51;46.79;98808.03;5056191;28;20246;-89
2022/04/24 10:20:42;;;;;;;9.80;5.60;;;;;;;24.40;47.11;98799.66;5055504;28;20177;-87
2022/04/24 10:23:09;;;;;;;12.43;5.90;;;;;;;24.72;46.70;98794.66;5055157;28;20527;-87
2022/04/24 10:25:40;;;;;;;14.27;6.23;;;;;;;24.62;45.40;98699.94;5053993;28;20177;-87
2022/04/24 10:28:20;;;;;;;14.03;6.30;;;;;;;23.94;45.65;98616.13;5087059;28;20184;-86
2022/04/24 10:31:03;;;;;;;13.27;6.30;;;;;;;24.76;43.98;98731.53;5054066;28;20298;-88
2022/04/24 10:33:32;;;;;;;13.67;5.80;;;;;;;24.89;44.08;98688.94;5054774;28;20638;-87
2022/04/24 10:35:59;;;;;;;13.30;6.10;;;;;;;25.67;44.26;98781.94;5054552;28;20327;-90
2022/04/24 10:38:26;;;;;;;9.70;5.10;;;;;;;24.96;43.00;98694.84;5055057;28;20586;-87
2022/04/24 10:41:02;;;;;;;14.17;5.17;;;;;;;24.53;43.70;98684.66;5055355;28;20170;-87
2022/04/24 10:43:48;;;;;;;14.73;4.90;;;;;;;25.12;44.19;98782.47;5054435;28;20173;-88
2022/04/24 10:46:19;;;;;;;14.10;4.80;;;;;;;23.64;42.76;98588.38;5051882;28;20184;-89
2022/04/24 10:48:46;;;;;;;9.13;4.73;;;;;;;24.62;43.95;98725.81;5050975;28;20193;-87
2022/04/24 10:51:12;;;;;;;10.00;4.97;;;;;;;23.90;43.80;98555.88;5050309;28;20189;-87
2022/04/24 10:53:50;;;;;;;10.50;4.80;;;;;;;25.03;42.18;98714.50;5059042;28;20176;-87
2022/04/24 10:56:16;;;;;;;11.77;4.33;;;;;;;24.64;41.80;98714.56;5054791;28;20197;-87
2022/04/24 10:58:42;;;;;;;13.33;5.20;;;;;;;23.99;41.67;98602.22;5070392;28;20184;-87
2022/04/24 11:01:09;;;;;;;13.67;4.90;;;;;;;24.49;42.06;98607.97;5069530;28;20570;-86
2022/04/24 11:03:43;;;;;;;14.07;4.83;;;;;;;25.65;42.52;98762.13;5053745;28;20323;-86
2022/04/24 11:06:24;;;;;;;10.90;4.80;;;;;;;25.73;42.19;98758.44;5054248;28;20182;-85
2022/04/24 11:08:51;;;;;;;20.00;5.03;;;;;;;24.34;43.49;98588.47;5052912;28;20230;-86
2022/04/24 11:11:20;;;;;;;13.00;4.97;;;;;;;25.42;41.21;98738.53;5051694;28;20724;-85
2022/04/24 11:13:46;;;;;;;10.02;4.53;;;;;;;25.77;41.54;98751.41;5057041;28;20165;-86
2022/04/24 11:16:13;;;;;;;16.90;5.32;;;;;;;25.25;43.05;98736.38;5058572;28;20255;-86
2022/04/24 11:18:45;;;;;;;19.27;4.97;;;;;;;25.38;42.66;98762.84;5055079;28;20327;-85
2022/04/24 11:21:16;;;;;;;15.57;4.33;;;;;;;25.40;43.22;98748.94;5058254;28;20174;-86
2022/04/24 11:23:43;;;;;;;12.60;4.82;;;;;;;24.57;43.66;98560.28;5053087;28;20268;-86